Time;durP1;ratioP1;P1;durP2;ratioP2;P2;SDS_P1;SDS_P2;PMS_P1;PMS_P2;Temp;Humidity;BMP_temperature;BMP_pressure;BME280_temperature;BME280_humidity;BME280_pressure;Samples;Min_cycle;Max_cycle;Signal;HPM_P1;HPM_P2
2022/12/25 00:02:01;;;;;;;9.80;8.80;;;8.10;99.90;;;;;;5053668;23;20293;-48
2022/12/25 00:04:28;;;;;;;9.43;8.53;;;8.10;99.90;;;;;;5071153;28;20219;-48
2022/12/25 00:06:59;;;;;;;9.83;8.83;;;8.10;99.90;;;;;;5070373;28;20260;-47
2022/12/25 00:09:26;;;;;;;7.97;7.27;;;8.10;99.90;;;;;;5068094;28;20202;-48
2022/12/25 00:11:53;;;;;;;7.77;7.03;;;8.10;99.90;;;;;;5066619;28;20248;-47
2022/12/25 00:14:20;;;;;;;7.17;6.57;;;8.10;99.90;;;;;;5057386;28;20738;-49
2022/12/25 00:16:47;;;;;;;7.23;6.70;;;8.10;99.90;;;;;;5058911;28;20694;-49
2022/12/25 00:19:14;;;;;;;8.43;7.20;;;8.20;99.90;;;;;;5060161;28;20628;-48
2022/12/25 00:21:41;;;;;;;7.83;7.17;;;8.20;99.90;;;;;;5049734;28;20639;-47
2022/12/25 00:24:09;;;;;;;6.33;5.83;;;8.20;99.90;;;;;;5050906;28;20216;-50
2022/12/25 00:26:36;;;;;;;8.60;6.67;;;8.30;99.90;;;;;;5052418;28;20200;-48
2022/12/25 00:29:03;;;;;;;6.83;5.93;;;8.30;99.90;;;;;;5053014;28;20242;-48
2022/12/25 00:31:30;;;;;;;8.00;6.07;;;8.30;99.90;;;;;;5053008;28;20768;-48
2022/12/25 00:33:57;;;;;;;6.40;5.80;;;8.20;99.90;;;;;;5051414;28;20220;-48
2022/12/25 00:36:24;;;;;;;4.63;4.23;;;8.30;99.90;;;;;;5052913;28;20222;-48
2022/12/25 00:38:51;;;;;;;4.70;4.30;;;8.40;99.90;;;;;;5053320;28;20202;-48
2022/12/25 00:42:17;;;;;;;4.27;3.93;;;8.50;99.90;;;;;;5051896;28;20199;-48
2022/12/25 00:44:12;;;;;;;4.13;3.90;;;8.40;99.90;;;;;;5047437;28;20730;-47
2022/12/25 00:46:40;;;;;;;4.97;4.57;;;8.40;99.90;;;;;;5051637;28;20232;-48
2022/12/25 00:49:07;;;;;;;4.00;3.80;;;8.40;99.90;;;;;;5052438;28;20207;-47
2022/12/25 00:51:34;;;;;;;3.87;3.57;;;8.40;99.90;;;;;;5052505;28;20254;-47
2022/12/25 00:54:01;;;;;;;3.97;3.67;;;8.40;99.90;;;;;;5051590;28;20228;-47
2022/12/25 00:56:29;;;;;;;3.70;3.50;;;8.40;99.90;;;;;;5050851;28;20357;-48
2022/12/25 00:58:56;;;;;;;3.63;3.43;;;8.50;99.90;;;;;;5045938;28;20259;-49
2022/12/25 01:01:23;;;;;;;4.20;3.60;;;8.50;99.90;;;;;;5049228;28;20207;-47
2022/12/25 01:03:50;;;;;;;4.87;4.30;;;8.40;99.90;;;;;;5035264;28;20230;-48
2022/12/25 01:06:17;;;;;;;4.30;3.93;;;8.40;99.90;;;;;;5032525;28;20250;-48
2022/12/25 01:10:21;;;;;;;4.50;4.23;;;8.40;99.90;;;;;;5030449;28;20262;-48
2022/12/25 01:11:31;;;;;;;5.03;4.70;;;8.30;99.90;;;;;;5031268;28;20274;-48
2022/12/25 01:13:59;;;;;;;6.30;5.87;;;8.30;99.90;;;;;;5024677;28;20224;-49
2022/12/25 01:16:26;;;;;;;7.47;6.27;;;8.30;99.90;;;;;;5032358;28;20266;-48
2022/12/25 01:18:53;;;;;;;6.00;5.30;;;8.20;99.90;;;;;;5032351;28;20256;-49
2022/12/25 01:21:21;;;;;;;5.43;5.00;;;8.20;99.90;;;;;;5030927;28;20204;-47
2022/12/25 01:23:48;;;;;;;4.77;4.37;;;8.20;99.90;;;;;;5031387;28;20221;-47
2022/12/25 01:26:17;;;;;;;4.23;3.83;;;8.30;99.90;;;;;;5029194;28;20246;-48
2022/12/25 01:28:46;;;;;;;4.37;3.97;;;8.40;99.90;;;;;;5032194;28;20196;-47
2022/12/25 01:31:16;;;;;;;5.70;5.07;;;8.40;99.90;;;;;;5030761;28;20200;-47
2022/12/25 01:33:44;;;;;;;4.53;4.17;;;8.40;99.90;;;;;;5031026;28;20788;-47
2022/12/25 01:36:14;;;;;;;6.33;5.37;;;8.40;99.90;;;;;;5032192;28;20224;-47
2022/12/25 01:38:42;;;;;;;5.40;4.90;;;8.40;99.90;;;;;;5028362;28;20288;-49
2022/12/25 01:41:09;;;;;;;5.10;4.70;;;8.50;99.90;;;;;;5029400;28;20212;-48
2022/12/25 01:43:36;;;;;;;5.33;4.93;;;8.40;99.90;;;;;;5030681;28;20694;-47
2022/12/25 01:46:04;;;;;;;4.60;3.93;;;8.40;99.90;;;;;;5031930;28;20194;-47
2022/12/25 01:48:35;;;;;;;5.70;4.17;;;8.50;99.90;;;;;;5030729;28;20204;-48
2022/12/25 01:51:06;;;;;;;4.87;4.37;;;8.50;99.90;;;;;;5030638;28;20746;-47
2022/12/25 01:53:33;;;;;;;5.13;4.77;;;8.50;99.90;;;;;;5028951;28;20220;-48
2022/12/25 01:56:05;;;;;;;4.47;4.17;;;8.50;99.90;;;;;;5031497;28;20564;-47
2022/12/25 01:58:32;;;;;;;3.80;3.50;;;8.50;99.90;;;;;;5030712;28;20229;-48
2022/12/25 02:00:59;;;;;;;4.90;4.10;;;8.40;99.90;;;;;;5031540;28;20622;-50
2022/12/25 02:03:28;;;;;;;5.20;4.53;;;8.40;99.90;;;;;;5034416;28;20297;-47
2022/12/25 02:05:55;;;;;;;4.20;4.00;;;8.40;99.90;;;;;;5038817;28;20196;-48
2022/12/25 02:08:23;;;;;;;4.23;3.93;;;8.40;99.90;;;;;;5039808;28;20200;-47
2022/12/25 02:10:50;;;;;;;4.30;4.00;;;8.40;99.90;;;;;;5037685;28;20265;-48
2022/12/25 02:13:19;;;;;;;4.63;4.23;;;8.50;99.90;;;;;;5030561;28;20221;-48
2022/12/25 02:15:55;;;;;;;5.73;5.10;;;8.40;99.90;;;;;;5031499;28;20309;-47
2022/12/25 02:18:33;;;;;;;5.17;4.77;;;8.30;99.90;;;;;;5030603;28;20690;-47
2022/12/25 02:21:38;;;;;;;5.37;4.93;;;8.30;99.90;;;;;;5032079;28;20198;-48
2022/12/25 02:24:36;;;;;;;5.73;4.90;;;8.30;99.90;;;;;;5028692;28;20222;-47
2022/12/25 02:27:13;;;;;;;4.37;4.07;;;8.30;99.90;;;;;;5026424;28;20236;-47
2022/12/25 02:29:49;;;;;;;4.50;4.23;;;8.30;99.90;;;;;;5036262;28;20212;-48
2022/12/25 02:32:21;;;;;;;3.33;3.13;;;8.40;99.90;;;;;;5034974;28;20232;-47
2022/12/25 02:34:52;;;;;;;3.77;3.57;;;8.40;99.90;;;;;;5045282;28;20209;-48
2022/12/25 02:37:26;;;;;;;3.83;3.53;;;8.50;99.90;;;;;;5046005;28;20637;-48
2022/12/25 02:39:59;;;;;;;3.50;3.20;;;8.50;99.90;;;;;;5035118;28;20342;-48
2022/12/25 03:08:14;;;;;;;2.73;2.53;;;8.50;99.90;;;;;;5035898;28;20203;-47
2022/12/25 03:13:34;;;;;;;2.27;2.17;;;8.50;99.90;;;;;;5050853;28;20226;-48
2022/12/25 03:18:47;;;;;;;3.43;2.93;;;8.60;99.90;;;;;;5040307;28;20220;-48
2022/12/25 03:26:59;;;;;;;2.87;2.67;;;8.70;99.90;;;;;;5043872;28;20201;-47
2022/12/25 03:32:26;;;;;;;1.90;1.73;;;8.60;99.90;;;;;;5040906;28;20211;-47
2022/12/25 04:36:31;;;;;;;0.80;0.80;;;8.60;99.90;;;;;;5039407;28;20281;-48
2022/12/25 04:38:58;;;;;;;1.03;0.93;;;8.60;99.90;;;;;;5020744;28;20196;-47
2022/12/25 04:41:26;;;;;;;0.80;0.80;;;8.60;99.90;;;;;;5044194;28;20200;-48
2022/12/25 04:43:53;;;;;;;0.70;0.70;;;8.50;99.90;;;;;;5051580;28;20776;-46
2022/12/25 04:46:20;;;;;;;0.73;0.73;;;8.60;99.90;;;;;;5013229;28;20195;-47
2022/12/25 04:48:47;;;;;;;0.70;0.70;;;8.60;99.90;;;;;;5016808;28;20673;-48
2022/12/25 04:51:18;;;;;;;1.53;0.70;;;8.60;99.90;;;;;;5030958;28;20625;-48
2022/12/25 04:53:45;;;;;;;1.70;0.90;;;8.60;99.90;;;;;;5049901;28;20264;-47
2022/12/25 04:56:12;;;;;;;0.93;0.93;;;8.60;99.90;;;;;;5040176;28;20664;-48
2022/12/25 04:58:41;;;;;;;0.77;0.77;;;8.50;99.90;;;;;;5040241;28;20199;-47
2022/12/25 05:01:09;;;;;;;0.77;0.77;;;8.50;99.90;;;;;;5032180;28;20217;-47
2022/12/25 05:03:36;;;;;;;0.80;0.80;;;8.50;99.90;;;;;;5045785;28;20232;-47
2022/12/25 05:06:04;;;;;;;0.60;0.60;;;8.60;99.90;;;;;;5045552;28;20691;-48
2022/12/25 05:08:32;;;;;;;1.27;0.80;;;8.60;99.90;;;;;;5026663;28;20305;-48
2022/12/25 05:10:59;;;;;;;2.27;0.93;;;8.60;99.90;;;;;;5034298;28;20202;-49
2022/12/25 05:13:27;;;;;;;1.30;1.20;;;8.60;99.90;;;;;;5032387;28;20221;-48
2022/12/25 05:15:55;;;;;;;2.10;1.50;;;8.60;99.90;;;;;;5032202;28;20777;-48
2022/12/25 05:18:22;;;;;;;1.53;1.20;;;8.50;99.90;;;;;;5031861;28;20221;-48
2022/12/25 05:20:53;;;;;;;0.90;0.90;;;8.50;99.90;;;;;;5030994;28;20200;-47
2022/12/25 05:23:20;;;;;;;1.60;1.23;;;8.50;99.90;;;;;;5031637;28;20224;-47
2022/12/25 05:25:47;;;;;;;1.80;1.10;;;8.50;99.90;;;;;;5032033;28;20676;-48
2022/12/25 05:28:14;;;;;;;1.43;1.07;;;8.60;99.90;;;;;;5030413;28;20638;-48
2022/12/25 05:30:41;;;;;;;1.50;1.40;;;8.60;99.90;;;;;;5026435;28;20278;-47
2022/12/25 05:33:10;;;;;;;0.97;0.83;;;8.60;99.90;;;;;;5021451;28;20308;-48
2022/12/25 05:35:37;;;;;;;0.90;0.80;;;8.60;99.90;;;;;;5033170;28;20591;-47
2022/12/25 05:38:05;;;;;;;0.43;0.40;;;8.60;99.90;;;;;;5022925;28;20214;-48
2022/12/25 05:40:33;;;;;;;0.80;0.80;;;8.60;99.90;;;;;;5025768;28;20199;-48
2022/12/25 05:43:01;;;;;;;0.40;0.40;;;8.60;99.90;;;;;;5028961;28;20219;-47
2022/12/25 05:45:28;;;;;;;0.30;0.30;;;8.60;99.90;;;;;;5027687;28;20208;-47
2022/12/25 05:47:55;;;;;;;0.50;0.50;;;8.60;99.90;;;;;;5031515;28;20719;-47
2022/12/25 05:50:24;;;;;;;0.80;0.30;;;8.60;99.90;;;;;;5029632;28;20266;-47
2022/12/25 05:52:51;;;;;;;0.30;0.30;;;8.70;99.90;;;;;;5032462;28;20228;-47
2022/12/25 05:55:18;;;;;;;0.40;0.40;;;8.60;99.90;;;;;;5032892;28;20202;-47
2022/12/25 05:57:45;;;;;;;0.37;0.33;;;8.50;99.90;;;;;;5030863;28;20783;-48
2022/12/25 06:00:12;;;;;;;0.90;0.50;;;8.40;99.90;;;;;;5031107;28;20261;-49
2022/12/25 06:02:40;;;;;;;0.87;0.37;;;8.30;99.90;;;;;;5031235;28;20278;-50
2022/12/25 06:05:08;;;;;;;0.50;0.50;;;8.30;99.90;;;;;;5047518;22;20255;-51
2022/12/25 06:07:37;;;;;;;1.00;0.63;;;8.20;99.90;;;;;;5033457;28;20199;-52
2022/12/25 06:10:05;;;;;;;0.90;0.60;;;8.20;99.90;;;;;;5018862;28;20663;-51
2022/12/25 06:12:32;;;;;;;0.53;0.50;;;8.10;99.90;;;;;;5027792;28;20206;-51
2022/12/25 06:14:59;;;;;;;0.63;0.53;;;8.10;99.90;;;;;;5028853;28;20312;-52
2022/12/25 06:17:27;;;;;;;1.20;0.47;;;8.10;99.90;;;;;;5028067;28;20707;-52
2022/12/25 06:19:54;;;;;;;1.10;0.90;;;8.00;99.90;;;;;;5030432;28;20205;-51
2022/12/25 06:22:21;;;;;;;4.60;2.03;;;7.90;99.90;;;;;;5028742;28;20248;-51
2022/12/25 06:24:50;;;;;;;1.40;1.30;;;7.90;99.90;;;;;;5030643;28;20769;-51
2022/12/25 06:27:17;;;;;;;1.53;1.40;;;7.90;99.90;;;;;;5022917;28;20204;-51
2022/12/25 06:29:44;;;;;;;1.07;1.00;;;7.80;99.90;;;;;;5029236;28;20225;-51
2022/12/25 06:32:11;;;;;;;2.50;0.80;;;7.90;99.90;;;;;;5029763;28;20285;-51
2022/12/25 06:34:38;;;;;;;0.40;0.40;;;7.90;99.90;;;;;;5028364;28;20227;-51
2022/12/25 06:37:05;;;;;;;0.40;0.40;;;7.80;99.90;;;;;;5028892;28;20230;-50
2022/12/25 06:39:32;;;;;;;0.53;0.53;;;7.80;99.90;;;;;;5030237;28;20197;-51
2022/12/25 06:42:00;;;;;;;0.40;0.40;;;7.80;99.90;;;;;;5028508;28;20607;-51
2022/12/25 06:44:28;;;;;;;1.07;0.60;;;7.70;99.90;;;;;;5022781;28;20231;-51
2022/12/25 06:46:59;;;;;;;1.27;0.30;;;7.70;99.90;;;;;;5030407;28;20199;-52
2022/12/25 06:49:26;;;;;;;0.60;0.43;;;7.70;99.90;;;;;;5029752;28;20579;-52
2022/12/25 06:51:53;;;;;;;0.70;0.70;;;7.60;99.90;;;;;;5024085;28;20212;-50
2022/12/25 06:54:20;;;;;;;0.70;0.70;;;7.60;99.90;;;;;;5027129;28;20286;-52
2022/12/25 06:56:47;;;;;;;1.37;0.77;;;7.60;99.90;;;;;;5029656;28;20254;-52
2022/12/25 06:59:16;;;;;;;1.93;0.80;;;7.70;99.90;;;;;;5025635;28;20214;-52
2022/12/25 07:01:46;;;;;;;1.47;1.13;;;7.60;99.90;;;;;;5024149;28;20207;-51
2022/12/25 07:04:17;;;;;;;1.40;1.27;;;7.60;99.90;;;;;;5038468;28;20222;-51
2022/12/25 07:06:48;;;;;;;0.80;0.80;;;7.60;99.90;;;;;;5044144;28;20242;-51
2022/12/25 07:09:15;;;;;;;1.00;1.00;;;7.60;99.90;;;;;;5050183;28;20208;-51
2022/12/25 07:11:42;;;;;;;0.77;0.77;;;7.60;99.90;;;;;;5047445;28;20567;-51
2022/12/25 07:14:18;;;;;;;3.20;3.00;;;7.50;99.90;;;;;;5052783;28;20289;-51
2022/12/25 07:16:45;;;;;;;8.00;5.20;;;7.60;99.90;;;;;;5053469;28;20211;-51
2022/12/25 07:19:13;;;;;;;6.97;5.37;;;7.60;99.90;;;;;;5052940;28;20212;-51
2022/12/25 07:21:39;;;;;;;7.87;5.53;;;7.60;99.90;;;;;;5053776;28;20216;-51
2022/12/25 07:24:07;;;;;;;5.07;4.00;;;7.60;99.90;;;;;;5053585;28;20227;-52
2022/12/25 07:26:34;;;;;;;4.27;2.50;;;7.50;99.90;;;;;;5054000;28;20203;-51
2022/12/25 07:29:01;;;;;;;3.30;2.00;;;7.50;99.90;;;;;;5054060;28;20662;-51
2022/12/25 07:31:29;;;;;;;3.53;2.47;;;7.50;99.90;;;;;;5065098;28;20210;-51
2022/12/25 07:33:56;;;;;;;2.07;1.93;;;7.50;99.90;;;;;;5063959;28;20783;-51
2022/12/25 07:36:23;;;;;;;5.30;3.33;;;7.50;99.90;;;;;;5053439;28;20205;-50
2022/12/25 07:38:50;;;;;;;2.73;2.53;;;7.60;99.90;;;;;;5046600;28;20680;-51
2022/12/25 07:41:18;;;;;;;1.60;0.37;;;7.70;99.90;;;;;;5036126;28;20248;-50
2022/12/25 07:43:45;;;;;;;0.50;0.50;;;7.70;99.90;;;;;;5033656;28;20226;-52
2022/12/25 07:46:12;;;;;;;0.30;0.30;;;7.80;99.90;;;;;;5044292;28;20684;-51
2022/12/25 07:48:40;;;;;;;0.20;0.20;;;7.90;99.90;;;;;;5046289;28;20857;-51
2022/12/25 07:51:10;;;;;;;0.30;0.30;;;7.90;99.90;;;;;;5041280;28;20461;-51
2022/12/25 07:53:39;;;;;;;0.30;0.30;;;8.00;99.90;;;;;;5062985;28;20690;-51
2022/12/25 07:56:07;;;;;;;1.03;0.43;;;7.90;99.90;;;;;;5051528;28;20615;-51
2022/12/25 07:58:34;;;;;;;0.50;0.50;;;7.90;99.90;;;;;;5044632;28;20295;-52
2022/12/25 08:01:04;;;;;;;0.30;0.30;;;7.90;99.90;;;;;;5049228;28;20204;-51
2022/12/25 08:03:32;;;;;;;0.50;0.50;;;7.90;99.90;;;;;;5049060;28;20209;-52
2022/12/25 08:06:02;;;;;;;0.40;0.40;;;8.00;99.90;;;;;;5028244;28;20210;-51
2022/12/25 08:08:30;;;;;;;0.40;0.40;;;8.00;99.90;;;;;;5031272;28;20294;-52
2022/12/25 08:10:57;;;;;;;0.57;0.40;;;8.10;99.90;;;;;;5032421;28;20192;-51
2022/12/25 08:13:24;;;;;;;0.43;0.43;;;8.10;99.90;;;;;;5028897;28;20204;-52
2022/12/25 08:15:51;;;;;;;0.43;0.43;;;8.10;99.90;;;;;;5032821;28;20671;-51
2022/12/25 08:18:18;;;;;;;0.40;0.40;;;8.20;99.90;;;;;;5032507;28;20774;-53
2022/12/25 08:20:45;;;;;;;0.30;0.30;;;8.20;99.90;;;;;;5032565;28;20200;-52
2022/12/25 08:23:13;;;;;;;0.20;0.20;;;8.40;99.90;;;;;;5030777;28;20262;-52
2022/12/25 08:25:40;;;;;;;0.37;0.30;;;8.60;99.90;;;;;;5031467;28;20703;-52
2022/12/25 08:28:08;;;;;;;0.30;0.30;;;8.70;99.90;;;;;;5032702;28;20830;-52
2022/12/25 08:30:37;;;;;;;1.47;0.40;;;8.80;99.90;;;;;;5032844;28;20208;-52
2022/12/25 08:33:05;;;;;;;0.30;0.30;;;8.90;99.90;;;;;;5030943;28;20204;-52
2022/12/25 08:35:34;;;;;;;0.93;0.50;;;8.80;99.90;;;;;;5032273;28;20300;-52
2022/12/25 08:38:01;;;;;;;0.30;0.30;;;8.80;99.90;;;;;;5026711;28;20292;-52
2022/12/25 08:40:29;;;;;;;0.30;0.30;;;8.80;99.90;;;;;;5030656;28;20208;-52
2022/12/25 08:42:56;;;;;;;0.40;0.40;;;8.80;99.90;;;;;;5024743;28;20204;-52
2022/12/25 08:45:24;;;;;;;0.30;0.30;;;8.80;99.90;;;;;;5027883;28;20239;-51
2022/12/25 08:47:54;;;;;;;1.10;1.10;;;9.00;99.90;;;;;;5030792;28;20200;-50
2022/12/25 08:50:22;;;;;;;1.30;1.30;;;9.10;99.90;;;;;;5024710;28;20211;-52
2022/12/25 08:52:49;;;;;;;0.87;0.60;;;9.30;99.90;;;;;;5028361;28;20213;-52
2022/12/25 08:55:16;;;;;;;0.53;0.53;;;9.40;99.90;;;;;;5031950;28;20286;-51
2022/12/25 08:57:44;;;;;;;0.50;0.50;;;9.60;99.90;;;;;;5028906;28;20224;-53
2022/12/25 09:00:12;;;;;;;0.70;0.70;;;9.70;99.90;;;;;;5023384;28;20262;-52
2022/12/25 09:02:39;;;;;;;0.30;0.30;;;9.80;99.90;;;;;;5028329;28;20235;-52
2022/12/25 09:05:11;;;;;;;0.77;0.37;;;9.90;99.90;;;;;;5029968;28;20309;-51
2022/12/25 09:07:38;;;;;;;1.23;0.30;;;10.00;99.90;;;;;;5029941;28;20198;-52
2022/12/25 09:10:05;;;;;;;0.43;0.40;;;10.30;99.90;;;;;;5030823;28;20205;-53
2022/12/25 09:12:32;;;;;;;0.33;0.33;;;10.50;99.90;;;;;;5028348;28;20206;-52
2022/12/25 09:15:01;;;;;;;0.43;0.40;;;10.60;99.90;;;;;;5030490;28;20223;-52
2022/12/25 09:17:28;;;;;;;0.30;0.30;;;10.70;99.90;;;;;;5029732;28;20282;-52
2022/12/25 09:19:55;;;;;;;0.30;0.30;;;10.80;99.90;;;;;;5030307;28;20578;-53
2022/12/25 09:22:22;;;;;;;1.40;0.40;;;10.80;99.90;;;;;;5028147;28;20209;-52
2022/12/25 09:24:48;;;;;;;1.00;0.30;;;10.70;99.90;;;;;;5029903;28;20226;-51
2022/12/25 09:27:16;;;;;;;0.20;0.20;;;10.70;99.90;;;;;;5032018;28;20201;-52
2022/12/25 09:29:43;;;;;;;0.93;0.37;;;10.70;99.90;;;;;;5027515;28;20263;-52
2022/12/25 09:32:11;;;;;;;0.77;0.40;;;10.70;99.90;;;;;;5027353;28;20195;-52
2022/12/25 09:34:38;;;;;;;0.60;0.30;;;10.60;99.90;;;;;;5025453;28;20804;-52
2022/12/25 09:37:05;;;;;;;0.40;0.40;;;10.60;99.90;;;;;;5030364;28;20741;-53
2022/12/25 09:39:32;;;;;;;0.30;0.30;;;10.60;99.90;;;;;;5029499;28;20228;-52
2022/12/25 09:42:03;;;;;;;0.50;0.50;;;10.60;99.90;;;;;;5024384;28;20209;-52
2022/12/25 09:44:33;;;;;;;0.33;0.33;;;10.60;99.90;;;;;;5025905;28;20222;-53
2022/12/25 09:47:05;;;;;;;0.43;0.43;;;10.60;99.90;;;;;;5007471;28;20568;-52
2022/12/25 09:49:39;;;;;;;0.20;0.20;;;10.70;99.90;;;;;;4991755;28;20643;-51
2022/12/25 09:52:14;;;;;;;0.40;0.30;;;10.80;99.90;;;;;;4987062;28;20203;-53
2022/12/25 09:54:49;;;;;;;0.47;0.47;;;10.80;99.90;;;;;;4984551;28;20288;-53
2022/12/25 09:57:16;;;;;;;0.57;0.40;;;11.00;99.90;;;;;;4991354;28;20632;-52
2022/12/25 09:59:46;;;;;;;0.43;0.43;;;11.10;99.90;;;;;;4991529;28;20807;-52
2022/12/25 10:03:03;;;;;;;1.37;0.40;;;11.20;99.90;;;;;;4990685;28;20214;-52
2022/12/25 10:06:04;;;;;;;0.20;0.20;;;11.30;99.90;;;;;;4928495;29;20235;-51
2022/12/25 10:08:47;;;;;;;0.13;0.13;;;11.40;99.90;;;;;;4966282;28;20209;-52
2022/12/25 10:11:26;;;;;;;0.10;0.10;;;11.50;99.90;;;;;;4991403;28;20563;-52
2022/12/25 10:14:06;;;;;;;0.30;0.30;;;11.70;99.90;;;;;;4987750;28;20233;-52
2022/12/25 10:16:43;;;;;;;0.20;0.20;;;12.00;99.90;;;;;;4990666;28;20307;-51
2022/12/25 10:19:26;;;;;;;0.70;0.30;;;12.30;99.90;;;;;;4991277;28;20606;-52
2022/12/25 10:22:01;;;;;;;0.20;0.20;;;12.70;99.90;;;;;;4989301;28;20300;-51
2022/12/25 10:24:34;;;;;;;0.40;0.20;;;12.90;99.90;;;;;;4982658;28;20229;-52
2022/12/25 10:27:04;;;;;;;0.20;0.20;;;13.10;99.90;;;;;;4991295;28;20670;-52
2022/12/25 10:29:33;;;;;;;0.30;0.30;;;13.10;99.90;;;;;;4987419;28;20289;-52
2022/12/25 10:32:00;;;;;;;0.20;0.20;;;13.20;99.90;;;;;;4987904;28;20206;-52
2022/12/25 10:34:27;;;;;;;0.43;0.30;;;13.30;99.90;;;;;;4984323;28;20604;-51
2022/12/25 10:37:00;;;;;;;0.30;0.30;;;13.20;99.90;;;;;;4986979;28;20206;-52
2022/12/25 10:39:27;;;;;;;0.87;0.40;;;13.20;99.90;;;;;;4986611;28;20326;-51
2022/12/25 10:42:19;;;;;;;0.30;0.30;;;13.10;99.90;;;;;;4989741;28;20202;-52
2022/12/25 10:44:58;;;;;;;2.10;0.40;;;12.90;99.90;;;;;;4981679;28;20259;-51
2022/12/25 10:47:26;;;;;;;0.30;0.30;;;12.80;99.90;;;;;;4990673;28;20253;-52
2022/12/25 10:49:54;;;;;;;0.30;0.30;;;12.80;99.90;;;;;;4993287;28;20208;-51
2022/12/25 10:52:25;;;;;;;1.20;1.13;;;12.70;99.90;;;;;;4989555;28;20413;-52
2022/12/25 10:54:52;;;;;;;1.17;0.40;;;12.70;99.90;;;;;;4991279;28;20290;-51
2022/12/25 10:57:21;;;;;;;2.63;2.53;;;12.80;99.90;;;;;;4993502;28;20634;-51
2022/12/25 10:59:49;;;;;;;0.77;0.67;;;12.80;99.90;;;;;;4985076;28;20282;-52
2022/12/25 11:02:21;;;;;;;0.47;0.47;;;12.80;99.90;;;;;;4989223;28;20208;-51
2022/12/25 11:04:49;;;;;;;0.60;0.60;;;12.80;99.90;;;;;;5014128;28;20225;-51
2022/12/25 11:07:25;;;;;;;0.90;0.90;;;12.70;99.90;;;;;;5017948;28;20330;-50
2022/12/25 11:09:53;;;;;;;0.87;0.87;;;12.70;99.90;;;;;;5020632;28;20282;-51
2022/12/25 11:12:23;;;;;;;1.20;0.70;;;12.70;99.90;;;;;;5017957;28;20298;-52
2022/12/25 11:14:55;;;;;;;0.53;0.53;;;12.70;99.90;;;;;;5012395;28;20578;-53
2022/12/25 11:17:25;;;;;;;0.93;0.93;;;12.70;99.90;;;;;;5016713;28;20253;-54
2022/12/25 11:19:53;;;;;;;0.90;0.83;;;12.60;99.90;;;;;;5018513;28;20320;-54
2022/12/25 11:22:20;;;;;;;0.83;0.83;;;12.40;99.90;;;;;;5013334;28;20285;-53
2022/12/25 11:24:49;;;;;;;1.80;1.63;;;12.40;99.90;;;;;;5007523;28;20274;-51
2022/12/25 11:27:23;;;;;;;1.00;1.00;;;12.50;99.90;;;;;;5018732;28;20200;-53
2022/12/25 11:29:53;;;;;;;1.33;1.23;;;12.60;99.90;;;;;;5024584;28;20192;-54
2022/12/25 11:32:27;;;;;;;0.90;0.70;;;12.70;99.90;;;;;;5019932;28;20198;-53
2022/12/25 11:34:56;;;;;;;1.10;1.10;;;12.70;99.90;;;;;;5011136;28;20506;-53
2022/12/25 11:37:31;;;;;;;0.80;0.80;;;12.70;99.90;;;;;;5015558;28;20196;-51
2022/12/25 11:40:00;;;;;;;1.27;0.77;;;12.60;99.90;;;;;;5012695;28;20306;-54
2022/12/25 11:42:31;;;;;;;1.00;1.00;;;12.50;99.90;;;;;;5004905;28;20222;-50
2022/12/25 11:45:04;;;;;;;1.27;1.17;;;12.50;99.90;;;;;;5001781;28;20717;-53
2022/12/25 11:47:36;;;;;;;0.80;0.80;;;12.50;99.90;;;;;;5020361;28;20206;-53
2022/12/25 11:50:07;;;;;;;0.60;0.60;;;12.60;99.90;;;;;;4993702;28;20210;-53
2022/12/25 11:52:38;;;;;;;0.80;0.80;;;12.60;99.90;;;;;;5015889;28;20209;-54
2022/12/25 11:55:16;;;;;;;0.83;0.80;;;12.60;99.90;;;;;;5011297;28;20218;-51
2022/12/25 11:57:47;;;;;;;0.73;0.60;;;12.60;99.90;;;;;;5010294;28;20215;-53
2022/12/25 12:00:16;;;;;;;0.60;0.60;;;12.70;99.90;;;;;;5011547;28;20230;-52
2022/12/25 12:02:47;;;;;;;2.83;2.03;;;12.70;99.90;;;;;;5014745;28;20263;-51
2022/12/25 12:05:21;;;;;;;7.80;7.07;;;12.70;99.90;;;;;;5039210;23;20236;-49
2022/12/25 12:07:57;;;;;;;9.13;8.27;;;12.50;99.90;;;;;;5030631;28;20202;-47
2022/12/25 12:10:37;;;;;;;8.17;7.17;;;12.50;99.90;;;;;;5031189;28;20202;-48
2022/12/25 12:13:27;;;;;;;7.97;7.13;;;12.40;99.90;;;;;;5030899;28;20209;-50
2022/12/25 12:15:54;;;;;;;9.40;8.33;;;12.30;99.90;;;;;;5023926;28;20215;-47
2022/12/25 12:18:28;;;;;;;10.57;9.47;;;12.10;99.90;;;;;;5026132;28;20209;-49
2022/12/25 12:21:00;;;;;;;8.90;8.13;;;11.90;99.90;;;;;;5031637;28;20633;-47
2022/12/25 12:23:29;;;;;;;10.50;8.87;;;11.90;99.90;;;;;;5027317;28;20202;-49
2022/12/25 12:25:58;;;;;;;9.93;8.40;;;11.30;99.90;;;;;;5033111;28;20757;-48
2022/12/25 12:28:27;;;;;;;9.50;7.70;;;11.10;99.90;;;;;;5031841;28;20236;-48
2022/12/25 12:31:00;;;;;;;9.03;8.23;;;11.10;99.90;;;;;;5031443;28;20760;-47
2022/12/25 12:33:32;;;;;;;8.77;7.80;;;10.90;99.90;;;;;;5032997;28;20205;-48
2022/12/25 12:36:00;;;;;;;9.60;8.67;;;10.70;99.90;;;;;;5017702;28;20229;-47
2022/12/25 12:38:28;;;;;;;7.83;7.17;;;10.60;99.90;;;;;;5029925;28;20215;-47
2022/12/25 12:40:58;;;;;;;9.60;8.03;;;10.50;99.90;;;;;;5018617;28;20204;-47
2022/12/25 12:43:35;;;;;;;10.57;7.67;;;10.40;99.90;;;;;;5028232;28;20202;-48
2022/12/25 12:46:06;;;;;;;8.70;7.80;;;10.30;99.90;;;;;;5025189;28;20300;-48
2022/12/25 12:48:40;;;;;;;7.63;7.03;;;10.30;99.90;;;;;;5031491;28;20211;-47
2022/12/25 12:51:10;;;;;;;7.00;6.40;;;10.40;99.90;;;;;;5032502;28;20228;-47
2022/12/25 12:53:38;;;;;;;8.97;7.43;;;10.50;99.90;;;;;;5032682;28;20208;-47
2022/12/25 12:56:18;;;;;;;8.23;7.37;;;10.20;99.90;;;;;;5032710;28;20731;-48
2022/12/25 12:58:49;;;;;;;8.37;7.47;;;9.90;99.90;;;;;;5016765;28;20213;-47
2022/12/25 13:01:45;;;;;;;7.87;7.07;;;9.90;99.90;;;;;;5026845;28;20196;-49
2022/12/25 13:04:36;;;;;;;7.60;6.80;;;9.70;99.90;;;;;;5025901;28;20198;-48
2022/12/25 13:07:12;;;;;;;7.30;6.63;;;9.80;99.90;;;;;;5032487;28;20673;-48
2022/12/25 13:09:52;;;;;;;7.43;6.72;;;9.60;99.90;;;;;;5008292;28;20849;-48
2022/12/25 13:12:39;;;;;;;8.23;7.40;;;9.50;99.90;;;;;;5011810;28;20208;-48
2022/12/25 13:15:13;;;;;;;6.77;6.17;;;9.50;99.90;;;;;;5005159;28;20225;-48
2022/12/25 13:17:45;;;;;;;8.57;6.90;;;9.40;99.90;;;;;;5007782;28;20208;-48
2022/12/25 13:20:20;;;;;;;9.37;7.37;;;9.20;99.90;;;;;;5006905;28;20228;-48
2022/12/25 13:22:47;;;;;;;8.57;7.77;;;9.20;99.90;;;;;;5012503;28;20196;-47
2022/12/25 13:25:19;;;;;;;7.13;6.43;;;9.00;99.90;;;;;;5012371;28;20229;-49
2022/12/25 13:27:55;;;;;;;7.40;6.73;;;8.90;99.90;;;;;;5010331;28;20212;-47
2022/12/25 13:30:24;;;;;;;7.70;7.00;;;8.90;99.90;;;;;;5007526;28;20232;-48
2022/12/25 13:32:51;;;;;;;7.37;6.63;;;9.10;99.90;;;;;;5009148;28;20204;-49
2022/12/25 13:35:21;;;;;;;11.83;6.90;;;9.10;99.90;;;;;;5005313;28;20229;-49
2022/12/25 13:37:48;;;;;;;7.63;6.90;;;8.80;99.90;;;;;;5001839;28;20241;-49
2022/12/25 13:40:24;;;;;;;7.50;6.77;;;8.80;99.90;;;;;;5002787;28;20225;-48
2022/12/25 13:42:57;;;;;;;7.93;7.23;;;8.70;99.90;;;;;;5012495;28;20207;-48
2022/12/25 13:45:27;;;;;;;8.17;7.37;;;8.70;99.90;;;;;;5012127;28;20221;-48
2022/12/25 13:47:55;;;;;;;7.73;6.97;;;8.70;99.90;;;;;;5010001;28;20674;-47
2022/12/25 13:50:24;;;;;;;8.00;6.80;;;8.80;99.90;;;;;;5004684;28;20201;-49
2022/12/25 13:52:53;;;;;;;10.40;7.13;;;8.90;99.90;;;;;;5012244;28;20259;-48
2022/12/25 13:55:22;;;;;;;8.87;7.97;;;8.80;99.90;;;;;;5008826;28;20224;-49
2022/12/25 13:57:53;;;;;;;7.63;6.87;;;8.80;99.90;;;;;;5010557;28;20205;-49
2022/12/25 14:00:24;;;;;;;9.57;8.57;;;8.70;99.90;;;;;;5006894;28;20213;-48
2022/12/25 14:02:51;;;;;;;13.20;8.90;;;8.60;99.90;;;;;;5011689;28;20274;-49
2022/12/25 14:05:30;;;;;;;15.80;9.43;;;8.50;99.90;;;;;;5012617;28;20243;-49
2022/12/25 14:07:59;;;;;;;9.60;8.47;;;8.40;99.90;;;;;;5009854;28;20212;-48
2022/12/25 14:10:29;;;;;;;9.40;8.50;;;8.50;99.90;;;;;;5015355;28;20197;-47
2022/12/25 14:13:02;;;;;;;11.70;9.23;;;8.40;99.90;;;;;;5012160;28;20205;-49
2022/12/25 14:15:31;;;;;;;9.60;8.03;;;8.50;99.90;;;;;;5012129;28;20260;-48
2022/12/25 14:17:59;;;;;;;10.43;7.63;;;8.50;99.90;;;;;;5011882;28;20209;-48
2022/12/25 14:20:29;;;;;;;11.17;8.30;;;8.30;99.90;;;;;;5016104;28;20221;-49
2022/12/25 14:22:59;;;;;;;11.77;8.17;;;8.20;99.90;;;;;;5035525;28;20204;-49
2022/12/25 14:25:30;;;;;;;8.77;7.97;;;8.10;99.90;;;;;;5030822;28;20220;-48
2022/12/25 14:28:00;;;;;;;11.57;8.13;;;8.20;99.90;;;;;;5016990;28;20199;-48
2022/12/25 14:30:29;;;;;;;8.03;7.23;;;8.30;99.90;;;;;;5020085;28;20665;-49
2022/12/25 14:32:57;;;;;;;7.87;6.97;;;8.10;99.90;;;;;;4996335;28;20228;-49
2022/12/25 14:35:25;;;;;;;8.83;7.17;;;8.10;99.90;;;;;;5003563;28;20225;-49
2022/12/25 14:37:58;;;;;;;10.30;6.90;;;8.10;99.90;;;;;;5022406;28;20202;-48
2022/12/25 14:40:29;;;;;;;7.40;6.70;;;8.00;99.90;;;;;;5023579;28;20252;-48
2022/12/25 14:42:58;;;;;;;7.20;6.60;;;7.90;99.90;;;;;;5035512;28;20262;-48
2022/12/25 14:45:28;;;;;;;7.83;7.03;;;7.90;99.90;;;;;;5025841;28;20231;-47
2022/12/25 14:47:57;;;;;;;8.63;7.67;;;7.80;99.90;;;;;;5022358;28;20205;-47
2022/12/25 14:50:31;;;;;;;7.77;7.07;;;7.80;99.90;;;;;;5023373;28;20201;-48